createdAt,value
2023-02-22T00:00:37.665Z,23
2023-02-22T00:05:47.936Z,27
2023-02-22T00:11:37.708Z,25
2023-02-22T00:16:47.904Z,20
2023-02-22T00:21:47.951Z,21
2023-02-22T00:26:47.995Z,18
2023-02-22T00:32:37.735Z,19
2023-02-22T00:37:37.670Z,22
2023-02-22T00:42:37.738Z,20
2023-02-22T00:47:47.958Z,19
2023-02-22T00:53:37.686Z,17
2023-02-22T00:58:47.976Z,17
2023-02-22T01:04:37.677Z,16
2023-02-22T01:09:47.944Z,15
2023-02-22T01:15:37.698Z,15
2023-02-22T01:20:48.162Z,15
2023-02-22T01:26:37.685Z,15
2023-02-22T01:31:47.988Z,14
2023-02-22T01:37:37.814Z,16
2023-02-22T01:42:37.691Z,17
2023-02-22T01:47:47.918Z,20
2023-02-22T01:52:47.903Z,22
2023-02-22T01:57:47.941Z,21
2023-02-22T02:02:47.967Z,21
2023-02-22T02:08:37.648Z,19
2023-02-22T02:13:37.660Z,17
2023-02-22T02:18:37.656Z,17
2023-02-22T02:23:37.664Z,16
2023-02-22T02:28:47.950Z,17
2023-02-22T02:33:47.929Z,17
2023-02-22T02:38:47.992Z,18
2023-02-22T02:43:47.993Z,15
2023-02-22T02:48:55.303Z,16
2023-02-22T02:54:37.654Z,17
2023-02-22T02:59:47.937Z,16
2023-02-22T03:04:47.995Z,17
2023-02-22T03:10:37.657Z,17
2023-02-22T03:15:37.655Z,16
2023-02-22T03:20:47.990Z,15
2023-02-22T03:26:37.677Z,15
2023-02-22T03:31:48.004Z,16
2023-02-22T03:37:37.718Z,15
2023-02-22T03:42:47.931Z,16
2023-02-22T03:47:47.964Z,16
2023-02-22T03:52:48.002Z,16
2023-02-22T03:58:37.683Z,19
2023-02-22T04:03:47.964Z,19
2023-02-22T04:09:47.978Z,18
2023-02-22T04:14:47.957Z,17
2023-02-22T04:20:37.671Z,16
2023-02-22T04:25:37.696Z,15
2023-02-22T04:30:37.716Z,15
2023-02-22T04:35:37.692Z,15
2023-02-22T04:40:47.963Z,16
2023-02-22T04:45:47.960Z,17
2023-02-22T04:51:37.681Z,17
2023-02-22T04:56:37.716Z,18
2023-02-22T05:01:37.685Z,16
2023-02-22T05:06:37.675Z,15
2023-02-22T05:11:47.957Z,16
2023-02-22T05:16:47.938Z,17
2023-02-22T05:21:47.962Z,16
2023-02-22T05:27:37.695Z,16
2023-02-22T05:32:47.972Z,17
2023-02-22T05:38:37.665Z,18
2023-02-22T05:43:47.980Z,17
2023-02-22T05:49:37.668Z,18
2023-02-22T05:54:47.937Z,17
2023-02-22T05:59:47.961Z,17
2023-02-22T06:04:47.959Z,17
2023-02-22T06:10:37.677Z,17
2023-02-22T06:15:37.689Z,18
2023-02-22T06:20:48.087Z,19
2023-02-22T06:25:48.157Z,19
2023-02-22T06:31:37.753Z,18
2023-02-22T06:36:48.309Z,19
2023-02-22T06:42:37.658Z,19
2023-02-22T06:47:47.994Z,18
2023-02-22T06:53:37.656Z,19
2023-02-22T06:58:47.934Z,19
2023-02-22T07:03:48.007Z,19
2023-02-22T07:08:47.952Z,20
2023-02-22T07:14:37.632Z,19
2023-02-22T07:19:37.670Z,19
2023-02-22T07:24:37.677Z,18
2023-02-22T07:29:37.664Z,18
2023-02-22T07:34:47.985Z,18
2023-02-22T07:40:37.707Z,18
2023-02-22T07:45:37.810Z,17
2023-02-22T07:50:47.972Z,16
2023-02-22T07:55:47.935Z,16
2023-02-22T08:01:37.671Z,17
2023-02-22T08:06:47.938Z,17
2023-02-22T08:11:48.179Z,16
2023-02-22T08:16:47.989Z,16
2023-02-22T08:22:37.745Z,19
2023-02-22T08:27:47.918Z,17
2023-02-22T08:32:48.108Z,16
2023-02-22T08:38:37.686Z,15
2023-02-22T08:43:37.688Z,15
2023-02-22T08:48:47.922Z,15
2023-02-22T08:53:47.988Z,15
2023-02-22T08:59:37.656Z,16
2023-02-22T09:04:47.939Z,15
2023-02-22T09:09:47.989Z,16
2023-02-22T09:15:37.681Z,14
2023-02-22T09:20:37.667Z,14
2023-02-22T09:25:47.972Z,15
2023-02-22T09:31:37.808Z,13
2023-02-22T09:36:37.649Z,14
2023-02-22T09:41:48.017Z,13
2023-02-22T09:47:37.686Z,13
2023-02-22T09:52:37.677Z,13
2023-02-22T09:58:38.195Z,13
2023-02-22T10:03:47.985Z,12
2023-02-22T10:08:47.941Z,12
2023-02-22T10:14:37.673Z,13
2023-02-22T10:19:37.666Z,11
2023-02-22T10:24:47.942Z,12
2023-02-22T10:29:48.013Z,12
2023-02-22T10:35:37.653Z,11
2023-02-22T10:40:37.676Z,12
2023-02-22T10:45:48.023Z,11
2023-02-22T10:50:47.940Z,11
2023-02-22T10:56:37.655Z,12
2023-02-22T11:01:37.790Z,11
2023-02-22T11:06:47.946Z,10
2023-02-22T11:11:47.960Z,10
2023-02-22T11:17:37.708Z,10
2023-02-22T11:22:47.932Z,9
2023-02-22T11:27:47.962Z,9
2023-02-22T11:33:37.699Z,9
2023-02-22T11:38:47.925Z,8
2023-02-22T11:43:47.950Z,8
2023-02-22T11:49:37.724Z,8
2023-02-22T11:54:37.698Z,8
2023-02-22T11:59:47.984Z,8
2023-02-22T12:05:37.662Z,8
2023-02-22T12:10:37.684Z,7
2023-02-22T12:15:48.023Z,7
2023-02-22T12:21:37.662Z,8
2023-02-22T12:26:37.661Z,8
2023-02-22T12:31:48.084Z,7
2023-02-22T12:37:37.742Z,8
2023-02-22T12:42:47.951Z,7
2023-02-22T12:47:47.957Z,7
2023-02-22T12:53:37.709Z,8
2023-02-22T12:58:47.965Z,8
2023-02-22T13:03:48.218Z,9
2023-02-22T13:09:37.699Z,8
2023-02-22T13:14:47.957Z,12
2023-02-22T13:20:37.691Z,8
2023-02-22T13:25:37.725Z,9
2023-02-22T13:30:37.768Z,9
2023-02-22T13:35:37.683Z,9
2023-02-22T13:40:47.954Z,9
2023-02-22T13:45:47.954Z,10
2023-02-22T13:51:37.670Z,10
2023-02-22T13:56:37.706Z,9
2023-02-22T14:01:48.155Z,9
2023-02-22T14:07:37.684Z,9
2023-02-22T14:12:47.992Z,10
2023-02-22T14:18:37.663Z,10
2023-02-22T14:23:37.693Z,10
2023-02-22T14:28:37.718Z,9
2023-02-22T14:33:47.955Z,11
2023-02-22T14:39:37.693Z,10
2023-02-22T14:44:37.717Z,9
2023-02-22T14:49:47.959Z,9
2023-02-22T14:54:47.951Z,9
2023-02-22T14:59:47.989Z,9
2023-02-22T15:04:48.106Z,9
2023-02-22T15:10:37.697Z,10
2023-02-22T15:15:37.744Z,9
2023-02-22T15:20:48.033Z,10
2023-02-22T15:26:37.787Z,10
2023-02-22T15:31:48.606Z,10
2023-02-22T15:37:37.673Z,9
2023-02-22T15:42:37.685Z,10
2023-02-22T15:47:37.773Z,11
2023-02-22T15:52:47.984Z,12
2023-02-22T15:58:37.679Z,16
2023-02-22T16:03:37.775Z,11
2023-02-22T16:08:52.614Z,10
2023-02-22T16:13:47.993Z,9
2023-02-22T16:19:37.721Z,9
2023-02-22T16:24:37.862Z,9
2023-02-22T16:29:47.996Z,9
2023-02-22T16:35:37.765Z,12
2023-02-22T16:40:37.699Z,11
2023-02-22T16:45:48.042Z,10
2023-02-22T16:51:37.736Z,12
2023-02-22T16:56:37.706Z,10
2023-02-22T17:02:37.682Z,13
2023-02-22T17:07:48.024Z,14
2023-02-22T17:13:37.718Z,13
2023-02-22T17:18:47.973Z,15
2023-02-22T17:23:48.002Z,13
2023-02-22T17:29:37.699Z,12
2023-02-22T17:34:37.697Z,13
2023-02-22T17:39:37.845Z,12
2023-02-22T17:44:47.995Z,12
2023-02-22T17:50:37.697Z,12
2023-02-22T17:55:37.736Z,13
2023-02-22T18:00:37.774Z,14
2023-02-22T18:05:47.973Z,14
2023-02-22T18:10:48.018Z,14
2023-02-22T18:16:37.720Z,14
2023-02-22T18:21:47.985Z,13
2023-02-22T18:27:37.785Z,18
2023-02-22T18:32:37.724Z,16
2023-02-22T18:37:37.763Z,16
2023-02-22T18:42:48.013Z,17
2023-02-22T18:47:47.990Z,27
2023-02-22T18:52:48.022Z,24
2023-02-22T18:58:37.729Z,19
2023-02-22T19:03:37.718Z,19
2023-02-22T19:08:48.005Z,15
2023-02-22T19:13:48.050Z,15
2023-02-22T19:19:37.765Z,17
2023-02-22T19:24:48.011Z,14
2023-02-22T19:29:49.435Z,14
2023-02-22T19:35:37.747Z,14
2023-02-22T19:40:47.991Z,16
2023-02-22T19:46:37.737Z,17
2023-02-22T19:51:37.745Z,17
2023-02-22T19:56:37.737Z,15
2023-02-22T20:01:48.029Z,18
2023-02-22T20:06:48.036Z,17
2023-02-22T20:12:37.734Z,14
2023-02-22T20:17:37.749Z,14
2023-02-22T20:22:48.041Z,13
2023-02-22T20:28:37.724Z,13
2023-02-22T20:33:48.171Z,12
2023-02-22T20:38:48.014Z,12
2023-02-22T20:44:37.714Z,12
2023-02-22T20:49:37.772Z,12
2023-02-22T20:54:48.049Z,12
2023-02-22T21:00:37.751Z,12
2023-02-22T21:05:48.029Z,13
2023-02-22T21:10:48.020Z,15
2023-02-22T21:16:37.806Z,12
2023-02-22T21:21:37.853Z,12
2023-02-22T21:26:48.036Z,13
2023-02-22T21:32:37.825Z,12
2023-02-22T21:37:48.040Z,13
2023-02-22T21:42:48.053Z,13
2023-02-22T21:48:37.714Z,15
2023-02-22T21:53:37.750Z,14
2023-02-22T21:58:48.006Z,13
2023-02-22T22:03:48.066Z,13
2023-02-22T22:09:37.788Z,15
2023-02-22T22:14:48.047Z,17
2023-02-22T22:20:37.728Z,15
2023-02-22T22:25:37.819Z,16
2023-02-22T22:30:48.055Z,16
2023-02-22T22:35:48.014Z,17
2023-02-22T22:40:48.059Z,19
2023-02-22T22:46:37.758Z,19
2023-02-22T22:51:37.771Z,19
2023-02-22T22:56:48.010Z,22
2023-02-22T23:01:48.013Z,21
2023-02-22T23:06:48.024Z,21
2023-02-22T23:11:48.042Z,21
2023-02-22T23:17:37.747Z,18
2023-02-22T23:22:37.767Z,20
2023-02-22T23:27:48.006Z,23
2023-02-22T23:32:48.107Z,25
2023-02-22T23:38:37.748Z,27
2023-02-22T23:43:48.026Z,29
2023-02-22T23:49:37.781Z,30
2023-02-22T23:54:48.021Z,29
2023-02-22T23:59:48.036Z,29
